createdAt,value
2023-03-10T00:00:15.811Z,98051.00
2023-03-10T00:05:18.416Z,98057.19
2023-03-10T00:10:19.948Z,98050.91
2023-03-10T00:15:21.694Z,98052.16
2023-03-10T00:20:23.350Z,98046.09
2023-03-10T00:25:24.759Z,98042.00
2023-03-10T00:30:30.639Z,98035.00
2023-03-10T00:35:33.343Z,98036.81
2023-03-10T00:40:34.817Z,98033.50
2023-03-10T00:45:36.163Z,98025.47
2023-03-10T00:50:37.618Z,98024.22
2023-03-10T00:55:39.055Z,98020.22
2023-03-10T01:00:47.911Z,98021.13
2023-03-10T01:05:49.839Z,98018.41
2023-03-10T01:10:51.279Z,98002.13
2023-03-10T01:15:52.830Z,97998.94
2023-03-10T01:20:57.270Z,97985.50
2023-03-10T01:25:58.726Z,97983.03
2023-03-10T01:31:00.109Z,97973.56
2023-03-10T01:36:09.582Z,97953.66
2023-03-10T01:41:15.887Z,97946.75
2023-03-10T01:46:32.386Z,97940.13
2023-03-10T01:51:35.497Z,97937.13
2023-03-10T01:56:37.653Z,97936.56
2023-03-10T02:01:39.270Z,97930.53
2023-03-10T02:06:50.030Z,97938.53
2023-03-10T02:11:55.042Z,97941.38
2023-03-10T02:16:56.446Z,97929.72
2023-03-10T02:22:04.901Z,97937.19
2023-03-10T02:27:35.872Z,97931.28
2023-03-10T02:32:39.842Z,97921.75
2023-03-10T02:37:41.572Z,97921.47
2023-03-10T02:42:54.243Z,97924.22
2023-03-10T02:47:55.735Z,97903.13
2023-03-10T02:53:05.403Z,97910.88
2023-03-10T02:58:06.782Z,97913.13
2023-03-10T03:03:08.855Z,97913.06
2023-03-10T03:08:10.594Z,97902.69
2023-03-10T03:13:13.638Z,97891.88
2023-03-10T03:18:30.250Z,97893.53
2023-03-10T03:23:31.648Z,97886.81
2023-03-10T03:28:32.976Z,97874.72
2023-03-10T03:33:34.937Z,97881.09
2023-03-10T03:38:36.294Z,97878.72
2023-03-10T03:43:37.639Z,97878.63
2023-03-10T03:48:39.022Z,97870.16
2023-03-10T03:53:40.409Z,97863.09
2023-03-10T03:58:41.805Z,97867.78
2023-03-10T04:03:43.256Z,97872.78
2023-03-10T04:08:44.664Z,97855.53
2023-03-10T04:13:46.215Z,97848.25
2023-03-10T04:19:03.006Z,97853.47
2023-03-10T04:24:05.079Z,97849.44
2023-03-10T04:29:06.603Z,97850.59
2023-03-10T04:34:08.084Z,97837.66
2023-03-10T04:39:09.412Z,97826.22
2023-03-10T04:44:24.436Z,97823.69
2023-03-10T04:49:46.591Z,97826.50
2023-03-10T04:54:51.654Z,97818.66
2023-03-10T04:59:53.168Z,97812.38
2023-03-10T05:04:54.485Z,97808.66
2023-03-10T05:09:55.810Z,97801.31
2023-03-10T05:14:57.153Z,97800.44
2023-03-10T05:19:58.536Z,97788.94
2023-03-10T05:24:59.922Z,97774.75
2023-03-10T05:30:01.364Z,97777.03
2023-03-10T05:35:03.804Z,97776.91
2023-03-10T05:40:09.359Z,97768.41
2023-03-10T05:45:11.333Z,97765.34
2023-03-10T05:50:13.122Z,97786.38
2023-03-10T05:55:16.278Z,97778.00
2023-03-10T06:00:17.821Z,97779.22
2023-03-10T06:05:19.174Z,97778.13
2023-03-10T06:10:23.695Z,97779.97
2023-03-10T06:15:25.011Z,97778.41
2023-03-10T06:20:26.514Z,97788.75
2023-03-10T06:25:27.996Z,97791.84
2023-03-10T06:30:29.353Z,97789.50
2023-03-10T06:35:31.298Z,97779.16
2023-03-10T06:40:32.679Z,97786.88
2023-03-10T06:45:34.032Z,97785.00
2023-03-10T06:50:35.923Z,97784.84
2023-03-10T06:55:37.934Z,97794.88
2023-03-10T07:00:39.288Z,97786.47
2023-03-10T07:05:40.714Z,97777.38
2023-03-10T07:10:42.098Z,97773.97
2023-03-10T07:15:44.185Z,97762.63
2023-03-10T07:20:46.218Z,97775.25
2023-03-10T07:25:51.278Z,97795.97
2023-03-10T07:30:52.702Z,97792.72
2023-03-10T07:35:54.139Z,97787.25
2023-03-10T07:40:55.549Z,97788.63
2023-03-10T07:45:56.919Z,97794.34
2023-03-10T07:51:01.345Z,97795.16
2023-03-10T07:56:06.761Z,97794.84
2023-03-10T08:01:09.066Z,97795.28
2023-03-10T08:06:19.396Z,97813.41
2023-03-10T08:11:21.238Z,97818.38
2023-03-10T08:16:23.588Z,97816.50
2023-03-10T08:21:24.979Z,97819.81
2023-03-10T08:26:29.470Z,97814.56
2023-03-10T08:31:30.899Z,97814.91
2023-03-10T08:36:32.423Z,97819.06
2023-03-10T08:41:48.630Z,97815.25
2023-03-10T08:46:50.845Z,97823.16
2023-03-10T08:51:52.514Z,97834.97
2023-03-10T08:56:53.886Z,97831.88
2023-03-10T09:01:58.298Z,97842.66
2023-03-10T09:07:01.456Z,97851.53
2023-03-10T09:12:03.344Z,97858.16
2023-03-10T09:17:04.847Z,97854.97
2023-03-10T09:22:06.327Z,97852.50
2023-03-10T09:27:07.720Z,97850.06
2023-03-10T09:32:09.308Z,97841.34
2023-03-10T09:37:10.898Z,97843.25
2023-03-10T09:42:25.564Z,97844.28
2023-03-10T09:47:41.665Z,97847.84
2023-03-10T09:53:12.521Z,97836.56
2023-03-10T09:58:18.125Z,97844.47
2023-03-10T10:03:21.497Z,97849.34
2023-03-10T10:08:28.978Z,97856.19
2023-03-10T10:13:33.689Z,97862.41
2023-03-10T10:18:40.184Z,97854.91
2023-03-10T10:23:47.180Z,97846.69
2023-03-10T10:28:58.911Z,97842.66
2023-03-10T10:34:01.778Z,97848.44
2023-03-10T10:39:06.543Z,97843.38
2023-03-10T10:44:13.297Z,97859.22
2023-03-10T10:49:31.933Z,97857.50
2023-03-10T10:54:40.972Z,97854.22
2023-03-10T10:59:42.353Z,97861.25
2023-03-10T11:04:45.185Z,97855.91
2023-03-10T11:09:47.020Z,97851.41
2023-03-10T11:14:57.520Z,97855.63
2023-03-10T11:20:09.866Z,97843.06
2023-03-10T11:25:23.202Z,97850.03
2023-03-10T11:30:31.466Z,97846.19
2023-03-10T11:35:42.923Z,97852.06
2023-03-10T11:40:46.203Z,97849.59
2023-03-10T11:45:49.253Z,97834.13
2023-03-10T11:50:58.658Z,97837.22
2023-03-10T11:56:01.507Z,97837.38
2023-03-10T12:01:03.457Z,97832.88
2023-03-10T12:06:08.999Z,97842.94
2023-03-10T12:11:14.362Z,97836.06
2023-03-10T12:16:18.812Z,97842.38
2023-03-10T12:21:23.057Z,97830.16
2023-03-10T12:26:39.891Z,97822.06
2023-03-10T12:31:41.340Z,97814.22
2023-03-10T12:36:46.390Z,97796.53
2023-03-10T12:41:57.442Z,97786.03
2023-03-10T12:47:15.377Z,97803.03
2023-03-10T12:52:43.309Z,97793.78
2023-03-10T12:57:44.700Z,97801.59
2023-03-10T13:02:54.082Z,97788.13
2023-03-10T13:08:00.974Z,97777.19
2023-03-10T13:13:04.617Z,97765.22
2023-03-10T13:18:25.510Z,97759.56
2023-03-10T13:23:37.686Z,97759.13
2023-03-10T13:28:39.144Z,97748.59
2023-03-10T13:33:52.250Z,97754.91
2023-03-10T13:38:54.462Z,97770.78
2023-03-10T13:43:56.179Z,97761.88
2023-03-10T13:48:59.985Z,97765.13
2023-03-10T13:54:12.259Z,97769.16
2023-03-10T13:59:15.568Z,97774.25
2023-03-10T14:04:18.670Z,97764.72
2023-03-10T14:09:21.746Z,97800.66
2023-03-10T14:14:51.968Z,97814.69
2023-03-10T14:19:53.532Z,97830.50
2023-03-10T14:24:55.282Z,97846.28
2023-03-10T14:30:00.187Z,97855.06
2023-03-10T14:35:01.621Z,97863.75
2023-03-10T14:40:03.549Z,97897.97
2023-03-10T14:45:14.166Z,97900.69
2023-03-10T14:50:16.921Z,97910.53
2023-03-10T14:55:18.400Z,97937.69
2023-03-10T15:00:20.808Z,97933.81
2023-03-10T15:05:27.567Z,97923.66
2023-03-10T15:10:33.711Z,97962.56
2023-03-10T15:15:39.632Z,97957.97
2023-03-10T15:20:42.049Z,97932.97
2023-03-10T15:25:45.725Z,97942.16
2023-03-10T15:30:47.745Z,97946.13
2023-03-10T15:35:49.191Z,97952.88
2023-03-10T15:40:50.792Z,97956.69
2023-03-10T15:45:52.176Z,97959.13
2023-03-10T15:50:53.556Z,97968.34
2023-03-10T15:55:55.100Z,97926.97
2023-03-10T16:00:56.517Z,97946.16
2023-03-10T16:05:57.920Z,97948.16
2023-03-10T16:10:59.268Z,97948.97
2023-03-10T16:16:04.433Z,97980.06
2023-03-10T16:21:05.934Z,98002.94
2023-03-10T16:26:15.303Z,97999.41
2023-03-10T16:31:17.626Z,98001.06
2023-03-10T16:36:20.290Z,98047.66
2023-03-10T16:41:22.166Z,98040.53
2023-03-10T16:46:24.894Z,98043.97
2023-03-10T16:51:30.997Z,98072.28
2023-03-10T16:56:34.816Z,98073.56
2023-03-10T17:01:36.277Z,98066.00
2023-03-10T17:06:37.992Z,98108.81
2023-03-10T17:11:40.807Z,98122.53
2023-03-10T17:16:42.746Z,98133.09
2023-03-10T17:21:46.194Z,98120.44
2023-03-10T17:26:47.896Z,98181.25
2023-03-10T17:31:49.578Z,98226.69
2023-03-10T17:36:51.269Z,98263.53
2023-03-10T17:41:52.704Z,98250.25
2023-03-10T17:46:54.075Z,98283.75
2023-03-10T17:51:55.523Z,98350.13
2023-03-10T17:56:59.752Z,98391.22
2023-03-10T18:02:01.227Z,98430.66
2023-03-10T18:07:02.705Z,98462.09
2023-03-10T18:12:04.388Z,98473.78
2023-03-10T18:17:05.810Z,98500.34
2023-03-10T18:22:22.342Z,98527.31
2023-03-10T18:27:23.724Z,98538.50
2023-03-10T18:32:26.200Z,98570.31
2023-03-10T18:37:28.067Z,98584.03
2023-03-10T18:42:29.470Z,98604.00
2023-03-10T18:47:30.786Z,98647.06
2023-03-10T18:52:35.883Z,98655.38
2023-03-10T18:57:37.294Z,98681.03
2023-03-10T19:02:38.658Z,98689.19
2023-03-10T19:07:40.523Z,98734.31
2023-03-10T19:12:42.376Z,98740.81
2023-03-10T19:17:43.786Z,98745.91
2023-03-10T19:22:47.670Z,98771.28
2023-03-10T19:27:49.161Z,98801.31
2023-03-10T19:32:50.601Z,98823.91
2023-03-10T19:37:52.115Z,98832.44
2023-03-10T19:42:53.701Z,98870.78
2023-03-10T19:47:55.238Z,98879.88
2023-03-10T19:52:56.658Z,98899.16
2023-03-10T19:57:58.169Z,98910.91
2023-03-10T20:02:59.563Z,98946.59
2023-03-10T20:08:01.051Z,98959.88
2023-03-10T20:13:17.656Z,98986.81
2023-03-10T20:18:19.114Z,98981.47
2023-03-10T20:23:20.455Z,99007.31
2023-03-10T20:28:21.885Z,98998.66
2023-03-10T20:33:23.241Z,99002.75
2023-03-10T20:38:24.650Z,99020.78
2023-03-10T20:43:25.947Z,99050.72
2023-03-10T20:48:27.256Z,99068.19
2023-03-10T20:53:29.381Z,99083.34
2023-03-10T20:58:30.726Z,99088.59
2023-03-10T21:03:32.099Z,99095.63
2023-03-10T21:08:33.470Z,99115.75
2023-03-10T21:13:35.246Z,99136.91
2023-03-10T21:18:36.855Z,99133.28
2023-03-10T21:23:38.339Z,99138.69
2023-03-10T21:28:39.871Z,99156.13
2023-03-10T22:20:35.854Z,99274.31
2023-03-10T22:25:37.568Z,99290.00
2023-03-10T22:30:41.250Z,99302.47
2023-03-10T22:35:55.058Z,99313.28
2023-03-10T22:40:56.641Z,99338.50
2023-03-10T22:45:58.010Z,99353.34
2023-03-10T22:51:00.026Z,99342.56
2023-03-10T22:56:02.532Z,99365.34
2023-03-10T23:01:04.440Z,99344.31
2023-03-10T23:06:06.295Z,99339.69
2023-03-10T23:11:11.856Z,99362.91
2023-03-10T23:16:13.309Z,99358.00
2023-03-10T23:21:14.911Z,99360.38
2023-03-10T23:26:16.357Z,99376.88
2023-03-10T23:31:17.870Z,99385.28
2023-03-10T23:36:19.248Z,99386.97
2023-03-10T23:41:20.606Z,99387.19
2023-03-10T23:46:22.175Z,99396.88
2023-03-10T23:51:23.723Z,99408.66
2023-03-10T23:56:25.295Z,99414.53
